Terminal Aerodrome Forecast
Issued by NWS Pueblo, CO

Home | Current Version | Previous Version | Text Only | Print | Product List | Glossary On
Versions: 1 2 3 4 5 6 7 8 9 10 11 12 13 14 15 16 17 18 19
000
FTUS45 KPUB 261131
TAFALS
TAF
KALS 261131Z 2612/2712 VRB04KT P6SM SKC
     FM261600 20011KT P6SM FEW200
     FM261800 23015G25KT P6SM SCT120 SCT200
     FM262100 23020G30KT P6SM SCT090 BKN150
     FM270100 23012KT P6SM SCT150
     FM270600 18006KT P6SM SKC=

USA.gov is the U.S. government's official web portal to all federal, state and local government web resources and services.